Decoded Metar for LFKB (BASTIA in CORSE ISL.) (IATA:BIA) | Meteo·Mobile Aviation Weather
aviador You're here:

LFKB Decoded Metar

BASTIA in CORSE ISL.
Report Time2018-08-21 15:30:00
UTC Time2018-08-21 16:05:56
Flight Rules vfr VFR
Wind010° at 06 kt
W.Decomp.*RWY 34: 5.3 kt HW 2.8 kt RCW
W.Rank010° ranks 15
Current wind is below 010° avg. (7.4)
Visibility9999 m
Phenomena:N/A
Clouds:N/A
Expected CloudBase > 4,800 ft AGL from Temp-Dew spread
CeilingNone
Temp31°C (ISA +16)
Dew Point19°C (49% RH)
Heat Index32.4°C
QNH1013 hPa
Density Alt2,169 ft
Elevation39 ft
Report Wrong Elevation
Raw Report
LFKB 211530Z AUTO 01006KT 330V050 CAVOK 31/19 Q1013 NOSIG=

Extra information for LFKB:More info

Metar Taf Metar & Taf Last 4 Metars F.Rules Stats Wind Profile Meteogram Temp Stats Airport Information Weather charts Add Link Nearby VenuesMetar ALERT Operation Metar Decoded Social comments